createdAt,value
2017-12-28T00:02:12.974Z,2.20
2017-12-28T00:04:40.420Z,2.23
2017-12-28T00:07:07.868Z,2.30
2017-12-28T00:09:35.337Z,2.73
2017-12-28T00:12:02.784Z,2.20
2017-12-28T00:14:30.252Z,2.40
2017-12-28T00:16:57.692Z,2.17
2017-12-28T00:19:25.150Z,2.60
2017-12-28T00:21:52.589Z,2.47
2017-12-28T00:24:20.065Z,2.20
2017-12-28T00:26:47.506Z,2.57
2017-12-28T00:29:14.972Z,2.50
2017-12-28T00:31:42.406Z,2.50
2017-12-28T00:34:09.866Z,2.60
2017-12-28T00:36:37.301Z,2.60
2017-12-28T00:39:04.770Z,2.57
2017-12-28T00:41:32.221Z,3.00
2017-12-28T00:43:59.690Z,2.77
2017-12-28T00:46:27.134Z,2.50
2017-12-28T00:48:54.602Z,3.07
2017-12-28T00:51:22.105Z,3.10
2017-12-28T00:53:49.546Z,3.10
2017-12-28T00:56:17.014Z,3.10
2017-12-28T00:58:44.463Z,3.30
2017-12-28T01:01:11.921Z,2.97
2017-12-28T01:03:39.369Z,3.53
2017-12-28T01:06:06.833Z,3.20
2017-12-28T01:08:34.283Z,3.83
2017-12-28T01:11:01.759Z,3.30
2017-12-28T01:13:29.198Z,3.30
2017-12-28T01:15:56.671Z,3.50
2017-12-28T01:18:24.111Z,3.37
2017-12-28T01:20:51.558Z,2.97
2017-12-28T01:23:19.017Z,3.17
2017-12-28T01:25:46.472Z,3.23
2017-12-28T01:28:13.930Z,2.93
2017-12-28T01:30:41.366Z,2.63
2017-12-28T01:33:08.822Z,3.20
2017-12-28T01:35:36.262Z,2.33
2017-12-28T01:38:03.722Z,3.37
2017-12-28T01:40:31.163Z,3.43
2017-12-28T01:42:58.628Z,2.80
2017-12-28T01:45:26.066Z,2.90
2017-12-28T01:48:02.294Z,2.90
2017-12-28T01:50:29.730Z,2.90
2017-12-28T01:52:57.215Z,3.27
2017-12-28T01:55:24.657Z,3.13
2017-12-28T01:57:52.106Z,2.73
2017-12-28T02:00:19.571Z,3.20
2017-12-28T02:02:47.019Z,2.80
2017-12-28T02:05:14.487Z,2.80
2017-12-28T02:07:41.927Z,2.63
2017-12-28T02:10:09.402Z,2.83
2017-12-28T02:12:36.846Z,2.67
2017-12-28T02:15:04.314Z,2.37
2017-12-28T02:17:31.762Z,2.30
2017-12-28T02:19:59.227Z,2.60
2017-12-28T02:22:26.665Z,3.10
2017-12-28T02:24:54.134Z,2.40
2017-12-28T02:27:21.577Z,2.60
2017-12-28T02:29:49.019Z,3.50
2017-12-28T02:32:16.486Z,3.70
2017-12-28T02:34:43.926Z,3.47
2017-12-28T02:37:11.390Z,3.60
2017-12-28T02:39:38.886Z,4.03
2017-12-28T02:42:06.352Z,3.80
2017-12-28T02:44:33.790Z,3.73
2017-12-28T02:47:01.254Z,4.10
2017-12-28T02:49:28.705Z,4.83
2017-12-28T02:51:56.172Z,3.67
2017-12-28T02:54:23.610Z,3.77
2017-12-28T02:56:51.086Z,3.63
2017-12-28T02:59:18.531Z,4.00
2017-12-28T03:01:45.978Z,4.10
2017-12-28T03:04:13.441Z,3.97
2017-12-28T03:06:40.883Z,3.93
2017-12-28T03:09:08.346Z,4.23
2017-12-28T03:11:35.795Z,4.33
2017-12-28T03:14:03.268Z,4.23
2017-12-28T03:16:30.710Z,4.53
2017-12-28T03:18:58.620Z,4.47
2017-12-28T03:21:26.065Z,5.43
2017-12-28T03:23:53.526Z,4.77
2017-12-28T03:26:20.978Z,4.30
2017-12-28T03:28:48.441Z,5.00
2017-12-28T03:31:15.883Z,4.67
2017-12-28T03:33:43.361Z,4.40
2017-12-28T03:36:10.804Z,4.17
2017-12-28T03:38:38.281Z,4.00
2017-12-28T03:41:05.718Z,4.10
2017-12-28T03:43:33.153Z,3.33
2017-12-28T03:46:00.626Z,3.60
2017-12-28T03:48:28.069Z,3.60
2017-12-28T03:50:55.547Z,3.00
2017-12-28T03:53:22.989Z,2.80
2017-12-28T03:55:50.441Z,3.13
2017-12-28T03:58:17.882Z,3.33
2017-12-28T04:00:45.343Z,3.17
2017-12-28T04:03:12.792Z,3.20
2017-12-28T04:05:40.266Z,3.30
2017-12-28T04:08:07.706Z,3.40
2017-12-28T04:10:35.171Z,3.30
2017-12-28T04:13:02.613Z,3.60
2017-12-28T04:15:30.107Z,3.30
2017-12-28T04:17:57.552Z,3.40
2017-12-28T04:20:24.993Z,3.67
2017-12-28T04:22:52.453Z,3.80
2017-12-28T04:25:19.893Z,3.13
2017-12-28T04:27:47.365Z,4.33
2017-12-28T04:30:14.810Z,3.30
2017-12-28T04:32:42.270Z,3.30
2017-12-28T04:35:09.701Z,3.10
2017-12-28T04:37:37.181Z,3.03
2017-12-28T04:40:04.620Z,3.40
2017-12-28T04:42:32.082Z,3.17
2017-12-28T04:44:59.524Z,2.83
2017-12-28T04:47:26.987Z,3.00
2017-12-28T04:49:54.432Z,3.70
2017-12-28T04:52:21.885Z,2.93
2017-12-28T04:54:49.331Z,3.37
2017-12-28T04:57:16.799Z,3.03
2017-12-28T04:59:44.237Z,3.27
2017-12-28T05:02:11.720Z,2.90
2017-12-28T05:04:39.166Z,3.10
2017-12-28T05:07:06.610Z,3.40
2017-12-28T05:09:34.071Z,3.00
2017-12-28T05:12:01.517Z,3.50
2017-12-28T05:14:28.974Z,3.50
2017-12-28T05:16:56.414Z,3.80
2017-12-28T05:19:23.873Z,3.90
2017-12-28T05:21:51.309Z,4.27
2017-12-28T05:24:18.770Z,4.37
2017-12-28T05:26:46.218Z,5.10
2017-12-28T05:29:13.677Z,4.53
2017-12-28T05:31:41.113Z,4.50
2017-12-28T05:34:08.569Z,5.30
2017-12-28T05:36:36.007Z,4.83
2017-12-28T05:39:03.482Z,5.10
2017-12-28T05:41:30.923Z,5.20
2017-12-28T05:43:58.370Z,5.50
2017-12-28T05:46:25.835Z,5.20
2017-12-28T05:48:53.281Z,5.13
2017-12-28T05:51:21.243Z,5.20
2017-12-28T05:53:48.690Z,5.40
2017-12-28T05:56:16.158Z,5.77
2017-12-28T05:58:43.594Z,5.40
2017-12-28T06:01:11.054Z,5.63
2017-12-28T06:03:38.488Z,5.50
2017-12-28T06:06:05.952Z,5.60
2017-12-28T06:08:33.408Z,5.70
2017-12-28T06:11:00.881Z,6.20
2017-12-28T06:13:28.334Z,6.50
2017-12-28T06:15:55.817Z,7.30
2017-12-28T06:18:23.259Z,7.13
2017-12-28T06:20:50.707Z,6.80
2017-12-28T06:23:18.176Z,7.13
2017-12-28T06:25:45.618Z,6.73
2017-12-28T06:28:13.082Z,6.70
2017-12-28T06:30:40.523Z,6.40
2017-12-28T06:33:07.982Z,5.83
2017-12-28T06:35:35.426Z,5.90
2017-12-28T06:38:02.894Z,5.67
2017-12-28T06:40:30.348Z,5.23
2017-12-28T06:42:57.812Z,5.47
2017-12-28T06:45:25.245Z,5.10
2017-12-28T06:47:52.931Z,5.40
2017-12-28T06:50:20.386Z,5.57
2017-12-28T06:52:47.846Z,5.13
2017-12-28T06:55:15.292Z,5.37
2017-12-28T06:57:42.769Z,5.53
2017-12-28T07:00:10.209Z,4.97
2017-12-28T07:02:37.650Z,5.03
2017-12-28T07:05:05.106Z,4.57
2017-12-28T07:07:32.550Z,4.97
2017-12-28T07:10:00.009Z,4.93
2017-12-28T07:12:27.454Z,5.70
2017-12-28T07:14:54.905Z,5.87
2017-12-28T07:17:22.377Z,5.43
2017-12-28T07:19:49.829Z,6.33
2017-12-28T07:22:17.261Z,5.90
2017-12-28T07:24:44.723Z,5.40
2017-12-28T07:27:12.162Z,4.67
2017-12-28T07:29:39.620Z,5.13
2017-12-28T07:32:07.062Z,4.83
2017-12-28T07:34:34.526Z,5.13
2017-12-28T07:37:01.965Z,5.17
2017-12-28T07:39:29.442Z,4.23
2017-12-28T07:41:56.882Z,4.67
2017-12-28T07:44:24.326Z,4.77
2017-12-28T07:46:51.787Z,4.53
2017-12-28T07:49:19.238Z,5.23
2017-12-28T07:51:46.695Z,7.10
2017-12-28T07:54:14.153Z,5.50
2017-12-28T07:56:41.627Z,4.80
2017-12-28T07:59:09.066Z,4.60
2017-12-28T08:01:36.525Z,4.20
2017-12-28T08:04:03.971Z,4.27
2017-12-28T08:06:31.430Z,3.80
2017-12-28T08:08:58.872Z,3.70
2017-12-28T08:11:26.329Z,3.50
2017-12-28T08:13:53.771Z,3.80
2017-12-28T08:16:21.231Z,3.50
2017-12-28T08:18:48.670Z,3.80
2017-12-28T08:21:16.133Z,3.73
2017-12-28T08:23:43.620Z,3.70
2017-12-28T08:26:11.049Z,4.03
2017-12-28T08:28:38.486Z,3.80
2017-12-28T08:31:05.949Z,4.20
2017-12-28T08:33:33.399Z,4.00
2017-12-28T08:36:00.869Z,4.07
2017-12-28T08:38:28.302Z,3.97
2017-12-28T08:40:55.777Z,4.07
2017-12-28T08:43:23.226Z,4.67
2017-12-28T08:45:50.681Z,4.73
2017-12-28T08:48:18.142Z,5.63
2017-12-28T08:50:45.598Z,5.40
2017-12-28T08:53:13.044Z,5.70
2017-12-28T08:55:40.514Z,5.97
2017-12-28T08:58:07.967Z,6.00
2017-12-28T09:00:35.409Z,6.23
2017-12-28T09:03:02.869Z,6.40
2017-12-28T09:05:30.309Z,6.60
2017-12-28T09:07:57.773Z,6.20
2017-12-28T09:10:25.222Z,6.73
2017-12-28T09:12:52.691Z,6.60
2017-12-28T09:15:20.137Z,7.40
2017-12-28T09:17:47.606Z,6.77
2017-12-28T09:20:15.054Z,6.90
2017-12-28T09:22:42.538Z,6.43
2017-12-28T09:25:09.985Z,6.17
2017-12-28T09:27:37.475Z,7.03
2017-12-28T09:30:04.942Z,7.77
2017-12-28T09:32:32.405Z,7.43
2017-12-28T09:34:59.867Z,6.93
2017-12-28T09:37:27.333Z,7.80
2017-12-28T09:39:54.787Z,7.77
2017-12-28T09:42:22.250Z,9.83
2017-12-28T09:44:49.700Z,8.60
2017-12-28T09:47:17.166Z,8.33
2017-12-28T09:49:44.614Z,8.40
2017-12-28T09:52:12.083Z,7.60
2017-12-28T09:54:39.534Z,8.57
2017-12-28T09:57:07.006Z,7.20
2017-12-28T09:59:34.454Z,8.67
2017-12-28T10:02:01.930Z,7.30
2017-12-28T10:04:29.373Z,5.80
2017-12-28T10:06:56.846Z,6.93
2017-12-28T10:09:24.289Z,5.53
2017-12-28T10:11:51.764Z,5.83
2017-12-28T10:14:19.205Z,5.97
2017-12-28T10:16:46.674Z,6.10
2017-12-28T10:19:14.122Z,5.47
2017-12-28T10:21:41.597Z,5.10
2017-12-28T10:24:09.045Z,4.90
2017-12-28T10:26:36.485Z,5.60
2017-12-28T10:29:03.945Z,5.20
2017-12-28T10:31:31.398Z,5.90
2017-12-28T10:33:58.860Z,5.30
2017-12-28T10:36:26.306Z,5.90
2017-12-28T10:38:53.778Z,4.90
2017-12-28T10:41:21.226Z,4.57
2017-12-28T10:43:48.728Z,4.90
2017-12-28T10:46:16.178Z,4.63
2017-12-28T10:48:43.646Z,4.70
2017-12-28T10:51:11.091Z,4.40
2017-12-28T10:53:38.554Z,4.87
2017-12-28T10:56:06.002Z,4.73
2017-12-28T10:58:33.466Z,4.30
2017-12-28T11:01:00.937Z,4.70
2017-12-28T11:03:28.398Z,3.83
2017-12-28T11:05:56.530Z,3.87
2017-12-28T11:08:23.999Z,3.87
2017-12-28T11:10:51.441Z,3.70
2017-12-28T11:13:18.906Z,3.20
2017-12-28T11:15:46.354Z,4.57
2017-12-28T11:18:13.822Z,4.23
2017-12-28T11:20:41.278Z,4.27
2017-12-28T11:23:08.750Z,4.13
2017-12-28T11:25:36.192Z,3.90
2017-12-28T11:28:03.654Z,4.33
2017-12-28T11:30:31.102Z,4.63
2017-12-28T11:32:58.599Z,4.33
2017-12-28T11:35:26.062Z,4.10
2017-12-28T11:37:53.542Z,4.23
2017-12-28T11:40:20.991Z,4.80
2017-12-28T11:42:48.458Z,4.33
2017-12-28T11:45:15.923Z,4.23
2017-12-28T11:47:43.364Z,5.00
2017-12-28T11:50:10.829Z,4.40
2017-12-28T11:52:48.189Z,4.33
2017-12-28T11:55:20.489Z,4.53
2017-12-28T11:57:53.477Z,4.20
2017-12-28T12:00:26.585Z,4.10
2017-12-28T12:02:59.557Z,4.20
2017-12-28T12:05:27.017Z,4.13
2017-12-28T12:07:54.460Z,3.93
2017-12-28T12:10:22.858Z,3.80
2017-12-28T12:12:50.321Z,3.97
2017-12-28T12:15:17.786Z,4.80
2017-12-28T12:17:45.240Z,3.80
2017-12-28T12:20:12.697Z,3.80
2017-12-28T12:22:40.135Z,4.27
2017-12-28T12:25:07.597Z,4.20
2017-12-28T12:27:35.042Z,3.97
2017-12-28T12:30:02.506Z,3.57
2017-12-28T12:32:29.957Z,3.80
2017-12-28T12:34:57.418Z,3.83
2017-12-28T12:37:24.870Z,4.20
2017-12-28T12:39:52.331Z,3.70
2017-12-28T12:42:19.787Z,3.73
2017-12-28T12:44:47.246Z,4.33
2017-12-28T12:47:14.687Z,4.33
2017-12-28T12:49:42.142Z,4.20
2017-12-28T12:52:09.579Z,3.50
2017-12-28T12:54:37.046Z,3.40
2017-12-28T12:57:04.501Z,3.57
2017-12-28T12:59:31.960Z,3.93
2017-12-28T13:01:59.397Z,4.20
2017-12-28T13:04:26.854Z,3.90
2017-12-28T13:06:54.294Z,3.60
2017-12-28T13:09:21.751Z,4.00
2017-12-28T13:11:49.195Z,3.87
2017-12-28T13:14:16.663Z,3.93
2017-12-28T13:16:44.115Z,4.30
2017-12-28T13:19:11.597Z,4.03
2017-12-28T13:21:39.046Z,3.93
2017-12-28T13:24:06.487Z,4.10
2017-12-28T13:26:33.939Z,4.57
2017-12-28T13:29:01.445Z,3.90
2017-12-28T13:31:28.906Z,4.00
2017-12-28T13:33:56.345Z,4.43
2017-12-28T13:36:23.805Z,4.13
2017-12-28T13:38:51.245Z,4.87
2017-12-28T13:41:18.710Z,4.13
2017-12-28T13:43:46.158Z,3.93
2017-12-28T13:46:13.609Z,4.30
2017-12-28T13:48:41.053Z,4.27
2017-12-28T13:51:08.526Z,4.00
2017-12-28T13:53:35.990Z,3.83
2017-12-28T13:56:03.454Z,3.97
2017-12-28T13:58:30.893Z,4.37
2017-12-28T14:00:58.355Z,3.90
2017-12-28T14:03:25.804Z,4.37
2017-12-28T14:05:53.273Z,5.10
2017-12-28T14:08:20.718Z,4.40
2017-12-28T14:10:48.179Z,5.20
2017-12-28T14:13:15.630Z,4.97
2017-12-28T14:15:43.095Z,5.00
2017-12-28T14:18:10.539Z,4.60
2017-12-28T14:20:37.998Z,4.73
2017-12-28T14:23:05.450Z,5.17
2017-12-28T14:25:32.910Z,4.83
2017-12-28T14:28:00.360Z,4.60
2017-12-28T14:30:27.818Z,4.67
2017-12-28T14:32:55.611Z,4.50
2017-12-28T14:35:23.074Z,3.90
2017-12-28T14:37:50.517Z,3.73
2017-12-28T14:40:18.801Z,3.60
2017-12-28T14:42:46.249Z,4.80
2017-12-28T14:45:13.686Z,3.97
2017-12-28T14:47:41.157Z,4.07
2017-12-28T14:50:08.599Z,4.03
2017-12-28T14:52:36.062Z,3.87
2017-12-28T14:55:03.504Z,3.07
2017-12-28T14:57:30.975Z,4.00
2017-12-28T14:59:58.418Z,3.87
2017-12-28T15:02:25.874Z,4.13
2017-12-28T15:04:53.328Z,4.13
2017-12-28T15:07:20.790Z,4.47
2017-12-28T16:31:45.238Z,3.50
2017-12-28T16:34:12.701Z,3.70
2017-12-28T16:36:40.137Z,3.80
2017-12-28T16:39:07.611Z,3.20
2017-12-28T16:41:35.051Z,3.47
2017-12-28T16:44:02.510Z,3.17
2017-12-28T16:46:29.949Z,3.53
2017-12-28T16:48:57.409Z,3.60
2017-12-28T16:51:24.850Z,3.50
2017-12-28T16:53:52.309Z,3.43
2017-12-28T16:56:19.746Z,3.40
2017-12-28T16:58:47.206Z,4.13
2017-12-28T17:01:14.646Z,3.40
2017-12-28T17:03:42.111Z,3.90
2017-12-28T17:06:09.550Z,3.70
2017-12-28T17:08:37.022Z,3.90
2017-12-28T17:11:04.462Z,4.27
2017-12-28T17:13:31.925Z,4.10
2017-12-28T17:15:59.358Z,4.30
2017-12-28T17:18:26.818Z,4.90
2017-12-28T17:20:54.266Z,4.33
2017-12-28T17:23:21.730Z,4.73
2017-12-28T17:25:49.165Z,4.53
2017-12-28T17:28:16.627Z,4.97
2017-12-28T17:30:44.069Z,4.83
2017-12-28T17:33:11.527Z,5.23
2017-12-28T17:35:38.966Z,4.50
2017-12-28T17:38:06.434Z,4.00
2017-12-28T17:40:34.502Z,3.77
2017-12-28T17:43:01.957Z,4.37
2017-12-28T17:45:29.406Z,4.33
2017-12-28T17:47:56.867Z,3.50
2017-12-28T17:50:24.311Z,3.70
2017-12-28T17:52:51.783Z,3.90
2017-12-28T17:55:19.930Z,3.60
2017-12-28T17:57:47.370Z,4.07
2017-12-28T18:00:14.833Z,3.80
2017-12-28T18:02:42.278Z,4.00
2017-12-28T18:05:09.738Z,4.00
2017-12-28T18:07:36.469Z,3.73
2017-12-28T18:10:05.115Z,4.37
2017-12-28T18:12:32.563Z,4.40
2017-12-28T18:15:00.029Z,3.67
2017-12-28T18:17:29.364Z,3.80
2017-12-28T18:19:59.728Z,3.23
2017-12-28T18:22:28.069Z,3.33
2017-12-28T18:24:58.384Z,3.57
2017-12-28T18:27:30.222Z,3.77
2017-12-28T18:29:57.790Z,4.10
2017-12-28T18:32:25.230Z,3.60
2017-12-28T18:34:52.694Z,3.63
2017-12-28T18:37:20.134Z,3.90
2017-12-28T18:39:47.602Z,3.40
2017-12-28T18:42:15.064Z,3.70
2017-12-28T18:44:42.536Z,3.80
2017-12-28T18:47:09.994Z,4.30
2017-12-28T18:49:37.454Z,3.77
2017-12-28T18:52:04.904Z,4.00
2017-12-28T18:54:33.354Z,3.83
2017-12-28T18:57:00.799Z,3.40
2017-12-28T20:21:25.249Z,3.73
2017-12-28T20:23:53.547Z,4.00
2017-12-28T20:26:21.018Z,3.67
2017-12-28T20:28:48.459Z,3.83
2017-12-28T20:31:15.931Z,3.40
2017-12-28T20:33:43.376Z,3.97
2017-12-28T20:36:10.846Z,3.80
2017-12-28T20:38:38.286Z,4.07
2017-12-28T20:41:05.750Z,3.60
2017-12-28T20:43:33.194Z,3.80
2017-12-28T20:46:00.653Z,3.60
2017-12-28T20:48:28.097Z,3.87
2017-12-28T20:50:55.553Z,3.33
2017-12-28T20:53:23.011Z,3.90
2017-12-28T20:55:50.474Z,3.67
2017-12-28T20:58:17.915Z,4.17
2017-12-28T21:00:45.397Z,3.80
2017-12-28T21:03:12.842Z,3.50
2017-12-28T21:05:40.319Z,3.23
2017-12-28T21:08:07.754Z,3.20
2017-12-28T21:10:35.202Z,3.13
2017-12-28T21:13:02.666Z,3.07
2017-12-28T21:15:30.113Z,3.47
2017-12-28T21:17:57.573Z,3.80
2017-12-28T21:20:25.014Z,3.43
2017-12-28T21:22:52.483Z,3.27
2017-12-28T21:25:19.929Z,3.07
2017-12-28T21:27:47.394Z,3.53
2017-12-28T21:30:14.835Z,3.70
2017-12-28T21:32:42.294Z,4.00
2017-12-28T21:35:09.739Z,3.90
2017-12-28T21:37:37.202Z,3.67
2017-12-28T21:40:04.646Z,4.03
2017-12-28T21:42:32.114Z,3.60
2017-12-28T21:44:59.556Z,3.50
2017-12-28T21:47:27.018Z,3.67
2017-12-28T21:49:54.469Z,3.70
2017-12-28T21:52:21.938Z,6.07
2017-12-28T21:54:49.387Z,6.63
2017-12-28T21:57:16.850Z,4.67
2017-12-28T21:59:44.292Z,3.80
2017-12-28T22:02:11.756Z,4.27
2017-12-28T22:04:39.203Z,4.17
2017-12-28T22:07:06.666Z,3.43
2017-12-28T22:09:34.101Z,3.77
2017-12-28T22:12:01.578Z,3.60
2017-12-28T22:14:29.025Z,3.87
2017-12-28T22:16:56.483Z,4.07
2017-12-28T22:19:23.936Z,3.60
2017-12-28T22:21:51.476Z,3.43
2017-12-28T22:24:18.914Z,3.63
2017-12-28T22:26:46.386Z,4.07
2017-12-28T22:29:13.825Z,3.73
2017-12-28T22:31:41.262Z,3.50
2017-12-28T22:34:09.022Z,3.50
2017-12-28T22:36:36.468Z,3.40
2017-12-28T22:39:03.930Z,3.37
2017-12-28T22:41:31.443Z,3.07
2017-12-28T22:43:58.914Z,3.00
2017-12-28T22:46:26.354Z,3.83
2017-12-28T22:48:53.806Z,3.43
2017-12-28T22:51:21.284Z,3.70
2017-12-28T22:53:48.726Z,3.53
2017-12-28T22:56:16.197Z,3.27
2017-12-28T22:58:43.656Z,3.30
2017-12-28T23:01:11.112Z,3.40
2017-12-28T23:03:38.564Z,3.27
2017-12-28T23:06:06.030Z,3.70
2017-12-28T23:08:33.477Z,3.47
2017-12-28T23:11:00.945Z,3.70
2017-12-28T23:13:28.419Z,3.37
2017-12-28T23:15:56.187Z,3.47
2017-12-28T23:18:23.642Z,3.20
2017-12-28T23:20:51.145Z,3.47
2017-12-28T23:23:18.602Z,3.50
2017-12-28T23:25:46.043Z,3.67
2017-12-28T23:28:13.506Z,3.50
2017-12-28T23:30:40.942Z,3.13
2017-12-28T23:33:08.401Z,3.57
2017-12-28T23:35:35.865Z,3.40
2017-12-28T23:38:03.306Z,3.67
2017-12-28T23:40:30.769Z,3.67
2017-12-28T23:42:58.205Z,3.33
2017-12-28T23:45:25.658Z,3.40
2017-12-28T23:47:53.121Z,3.60
2017-12-28T23:50:20.582Z,3.40
2017-12-28T23:52:48.034Z,3.40
2017-12-28T23:55:15.510Z,3.40
2017-12-28T23:57:42.954Z,3.23
